sensor_id;sensor_type;location;lat;lon;timestamp;pressure;altitude;pressure_sealevel;temperature;humidity
70248;BME280;57641;51.416;5.506;2023-12-04T00:00:04;101429.25;;;5.75;63.38
70248;BME280;57641;51.416;5.506;2023-12-04T00:02:30;101430.09;;;5.76;63.71
70248;BME280;57641;51.416;5.506;2023-12-04T00:04:55;101429.44;;;5.72;63.32
70248;BME280;57641;51.416;5.506;2023-12-04T00:07:20;101431.44;;;5.81;63.20
70248;BME280;57641;51.416;5.506;2023-12-04T00:09:46;101422.16;;;5.76;63.37
70248;BME280;57641;51.416;5.506;2023-12-04T00:12:11;101425.84;;;5.73;63.05
70248;BME280;57641;51.416;5.506;2023-12-04T00:14:37;101426.34;;;5.78;63.30
70248;BME280;57641;51.416;5.506;2023-12-04T00:17:02;101430.47;;;5.82;63.41
70248;BME280;57641;51.416;5.506;2023-12-04T00:19:28;101418.75;;;5.74;63.72
70248;BME280;57641;51.416;5.506;2023-12-04T00:21:53;101408.91;;;5.76;63.65
70248;BME280;57641;51.416;5.506;2023-12-04T00:24:19;101414.06;;;5.77;63.78
70248;BME280;57641;51.416;5.506;2023-12-04T00:26:44;101409.75;;;5.89;63.47
70248;BME280;57641;51.416;5.506;2023-12-04T00:29:09;101404.34;;;5.78;63.56
70248;BME280;57641;51.416;5.506;2023-12-04T00:31:35;101399.38;;;5.73;63.80
70248;BME280;57641;51.416;5.506;2023-12-04T00:34:00;101392.91;;;5.77;63.69
70248;BME280;57641;51.416;5.506;2023-12-04T00:36:26;101398.84;;;5.81;63.62
70248;BME280;57641;51.416;5.506;2023-12-04T00:38:52;101399.38;;;5.86;63.43
70248;BME280;57641;51.416;5.506;2023-12-04T00:41:18;101389.09;;;5.94;63.45
70248;BME280;57641;51.416;5.506;2023-12-04T00:43:43;101396.22;;;5.56;63.65
70248;BME280;57641;51.416;5.506;2023-12-04T00:46:08;101394.31;;;5.70;63.75
70248;BME280;57641;51.416;5.506;2023-12-04T00:48:34;101396.00;;;5.71;63.63
70248;BME280;57641;51.416;5.506;2023-12-04T00:50:59;101387.84;;;5.74;63.24
70248;BME280;57641;51.416;5.506;2023-12-04T00:53:25;101395.88;;;5.85;63.72
70248;BME280;57641;51.416;5.506;2023-12-04T00:55:50;101378.84;;;5.77;63.58
70248;BME280;57641;51.416;5.506;2023-12-04T00:58:16;101376.09;;;5.78;63.60
70248;BME280;57641;51.416;5.506;2023-12-04T01:00:41;101379.63;;;5.53;63.53
70248;BME280;57641;51.416;5.506;2023-12-04T01:03:07;101372.25;;;5.82;63.89
70248;BME280;57641;51.416;5.506;2023-12-04T01:05:32;101373.66;;;5.88;63.36
70248;BME280;57641;51.416;5.506;2023-12-04T01:07:57;101365.94;;;5.72;63.63
70248;BME280;57641;51.416;5.506;2023-12-04T01:10:23;101360.03;;;5.69;63.91
70248;BME280;57641;51.416;5.506;2023-12-04T01:12:49;101360.22;;;5.78;63.45
70248;BME280;57641;51.416;5.506;2023-12-04T01:15:14;101355.66;;;5.80;63.53
70248;BME280;57641;51.416;5.506;2023-12-04T01:17:39;101352.78;;;5.83;63.08
70248;BME280;57641;51.416;5.506;2023-12-04T01:20:06;101351.31;;;5.79;63.53
70248;BME280;57641;51.416;5.506;2023-12-04T01:22:32;101357.06;;;5.73;63.55
70248;BME280;57641;51.416;5.506;2023-12-04T01:24:57;101348.78;;;5.78;63.53
70248;BME280;57641;51.416;5.506;2023-12-04T01:27:23;101342.44;;;5.80;63.44
70248;BME280;57641;51.416;5.506;2023-12-04T01:29:48;101343.28;;;5.81;63.72
70248;BME280;57641;51.416;5.506;2023-12-04T01:32:14;101344.66;;;5.86;63.27
70248;BME280;57641;51.416;5.506;2023-12-04T01:34:39;101332.81;;;5.92;63.18
70248;BME280;57641;51.416;5.506;2023-12-04T01:37:05;101336.28;;;5.92;62.74
70248;BME280;57641;51.416;5.506;2023-12-04T01:39:30;101340.41;;;5.84;63.21
70248;BME280;57641;51.416;5.506;2023-12-04T01:41:55;101334.81;;;5.88;63.27
70248;BME280;57641;51.416;5.506;2023-12-04T01:44:21;101326.22;;;5.85;63.38
70248;BME280;57641;51.416;5.506;2023-12-04T01:46:48;101327.81;;;5.87;62.91
70248;BME280;57641;51.416;5.506;2023-12-04T01:49:14;101320.84;;;5.86;62.95
70248;BME280;57641;51.416;5.506;2023-12-04T01:51:40;101327.53;;;5.92;63.50
70248;BME280;57641;51.416;5.506;2023-12-04T01:54:06;101321.47;;;5.90;62.96
70248;BME280;57641;51.416;5.506;2023-12-04T01:56:33;101308.41;;;6.00;62.35
70248;BME280;57641;51.416;5.506;2023-12-04T01:58:59;101311.84;;;5.89;62.91
70248;BME280;57641;51.416;5.506;2023-12-04T02:01:26;101309.72;;;5.94;62.62
70248;BME280;57641;51.416;5.506;2023-12-04T02:03:51;101297.31;;;5.94;62.57
70248;BME280;57641;51.416;5.506;2023-12-04T02:06:17;101289.53;;;5.80;62.47
70248;BME280;57641;51.416;5.506;2023-12-04T02:08:46;101293.44;;;5.87;62.92
70248;BME280;57641;51.416;5.506;2023-12-04T02:11:12;101291.63;;;5.88;62.21
70248;BME280;57641;51.416;5.506;2023-12-04T02:13:38;101289.03;;;5.99;62.32
70248;BME280;57641;51.416;5.506;2023-12-04T02:16:05;101296.38;;;5.96;62.82
70248;BME280;57641;51.416;5.506;2023-12-04T02:18:34;101292.03;;;5.94;62.65
70248;BME280;57641;51.416;5.506;2023-12-04T02:21:01;101281.34;;;5.83;61.77
70248;BME280;57641;51.416;5.506;2023-12-04T02:23:27;101281.59;;;6.04;62.55
70248;BME280;57641;51.416;5.506;2023-12-04T02:26:01;101279.09;;;6.03;62.04
70248;BME280;57641;51.416;5.506;2023-12-04T02:28:32;101275.53;;;5.91;61.82
70248;BME280;57641;51.416;5.506;2023-12-04T02:30:59;101279.34;;;5.87;62.39
70248;BME280;57641;51.416;5.506;2023-12-04T02:33:27;101273.50;;;5.94;62.52
70248;BME280;57641;51.416;5.506;2023-12-04T02:35:55;101268.56;;;5.90;62.34
70248;BME280;57641;51.416;5.506;2023-12-04T02:38:21;101268.66;;;5.88;62.36
70248;BME280;57641;51.416;5.506;2023-12-04T02:40:47;101264.09;;;5.90;62.78
70248;BME280;57641;51.416;5.506;2023-12-04T02:43:13;101258.91;;;5.89;62.55
70248;BME280;57641;51.416;5.506;2023-12-04T02:45:38;101255.59;;;5.98;62.21
70248;BME280;57641;51.416;5.506;2023-12-04T02:48:04;101255.09;;;5.93;62.14
70248;BME280;57641;51.416;5.506;2023-12-04T02:50:30;101251.94;;;5.88;62.32
70248;BME280;57641;51.416;5.506;2023-12-04T02:52:55;101246.25;;;5.81;62.47
70248;BME280;57641;51.416;5.506;2023-12-04T02:55:21;101237.47;;;5.81;62.58
70248;BME280;57641;51.416;5.506;2023-12-04T02:57:46;101236.63;;;5.80;62.60
70248;BME280;57641;51.416;5.506;2023-12-04T03:00:12;101226.63;;;5.84;61.90
70248;BME280;57641;51.416;5.506;2023-12-04T03:02:38;101229.00;;;6.00;61.55
70248;BME280;57641;51.416;5.506;2023-12-04T03:05:04;101229.06;;;5.87;62.17
70248;BME280;57641;51.416;5.506;2023-12-04T03:07:29;101231.53;;;5.77;62.10
70248;BME280;57641;51.416;5.506;2023-12-04T03:09:55;101220.72;;;5.80;61.85
70248;BME280;57641;51.416;5.506;2023-12-04T03:12:20;101222.09;;;5.86;61.84
70248;BME280;57641;51.416;5.506;2023-12-04T03:14:46;101217.53;;;5.88;61.87
70248;BME280;57641;51.416;5.506;2023-12-04T03:17:11;101211.50;;;5.86;61.95
70248;BME280;57641;51.416;5.506;2023-12-04T03:19:36;101218.38;;;5.88;61.75
70248;BME280;57641;51.416;5.506;2023-12-04T03:22:02;101199.00;;;5.88;62.12
70248;BME280;57641;51.416;5.506;2023-12-04T03:24:27;101203.06;;;5.81;62.06
70248;BME280;57641;51.416;5.506;2023-12-04T03:26:53;101196.19;;;5.78;62.39
70248;BME280;57641;51.416;5.506;2023-12-04T03:29:18;101188.53;;;5.86;62.08
70248;BME280;57641;51.416;5.506;2023-12-04T03:31:44;101197.31;;;5.87;61.81
70248;BME280;57641;51.416;5.506;2023-12-04T03:34:09;101188.47;;;5.99;60.42
70248;BME280;57641;51.416;5.506;2023-12-04T03:36:34;101185.69;;;5.89;61.24
70248;BME280;57641;51.416;5.506;2023-12-04T03:39:00;101175.19;;;5.88;61.85
70248;BME280;57641;51.416;5.506;2023-12-04T03:41:25;101168.22;;;5.87;61.53
70248;BME280;57641;51.416;5.506;2023-12-04T03:43:51;101167.66;;;5.94;61.70
70248;BME280;57641;51.416;5.506;2023-12-04T03:46:16;101171.88;;;5.97;61.29
70248;BME280;57641;51.416;5.506;2023-12-04T03:48:42;101164.78;;;5.74;61.43
70248;BME280;57641;51.416;5.506;2023-12-04T03:51:07;101166.31;;;5.89;61.35
70248;BME280;57641;51.416;5.506;2023-12-04T03:53:33;101158.41;;;5.76;61.41
70248;BME280;57641;51.416;5.506;2023-12-04T03:55:58;101161.13;;;5.64;62.53
70248;BME280;57641;51.416;5.506;2023-12-04T03:58:24;101155.06;;;5.74;61.64
70248;BME280;57641;51.416;5.506;2023-12-04T04:00:50;101144.22;;;5.77;61.96
70248;BME280;57641;51.416;5.506;2023-12-04T04:03:15;101143.16;;;5.80;61.71
70248;BME280;57641;51.416;5.506;2023-12-04T04:05:40;101152.78;;;5.81;61.76
70248;BME280;57641;51.416;5.506;2023-12-04T04:08:06;101143.63;;;5.74;61.30
70248;BME280;57641;51.416;5.506;2023-12-04T04:10:33;101139.38;;;5.71;62.04
70248;BME280;57641;51.416;5.506;2023-12-04T04:12:59;101139.38;;;5.71;62.05
70248;BME280;57641;51.416;5.506;2023-12-04T04:15:25;101135.34;;;5.78;61.54
70248;BME280;57641;51.416;5.506;2023-12-04T04:17:51;101126.44;;;5.79;61.60
70248;BME280;57641;51.416;5.506;2023-12-04T04:20:17;101124.00;;;5.76;61.26
70248;BME280;57641;51.416;5.506;2023-12-04T04:22:43;101119.22;;;5.70;61.48
70248;BME280;57641;51.416;5.506;2023-12-04T04:25:09;101112.34;;;5.68;61.77
70248;BME280;57641;51.416;5.506;2023-12-04T04:27:35;101123.19;;;5.76;61.86
70248;BME280;57641;51.416;5.506;2023-12-04T04:30:02;101122.56;;;5.72;61.54
70248;BME280;57641;51.416;5.506;2023-12-04T04:32:28;101121.16;;;5.79;61.92
70248;BME280;57641;51.416;5.506;2023-12-04T04:34:53;101109.47;;;5.82;61.13
70248;BME280;57641;51.416;5.506;2023-12-04T04:37:22;101106.03;;;5.81;61.08
70248;BME280;57641;51.416;5.506;2023-12-04T04:39:47;101103.97;;;5.85;61.60
70248;BME280;57641;51.416;5.506;2023-12-04T04:42:14;101105.22;;;5.92;61.45
70248;BME280;57641;51.416;5.506;2023-12-04T04:44:39;101093.59;;;5.82;61.62
70248;BME280;57641;51.416;5.506;2023-12-04T04:47:05;101103.47;;;5.80;61.28
70248;BME280;57641;51.416;5.506;2023-12-04T04:49:30;101094.09;;;5.76;61.08
70248;BME280;57641;51.416;5.506;2023-12-04T04:51:56;101090.97;;;5.71;61.73
70248;BME280;57641;51.416;5.506;2023-12-04T04:54:21;101093.72;;;5.69;61.30
70248;BME280;57641;51.416;5.506;2023-12-04T04:56:47;101088.56;;;5.79;62.25
70248;BME280;57641;51.416;5.506;2023-12-04T04:59:12;101084.47;;;5.75;61.48
70248;BME280;57641;51.416;5.506;2023-12-04T05:01:37;101090.63;;;5.86;61.49
70248;BME280;57641;51.416;5.506;2023-12-04T05:04:03;101093.84;;;5.79;61.58
70248;BME280;57641;51.416;5.506;2023-12-04T05:06:28;101092.16;;;5.78;61.30
70248;BME280;57641;51.416;5.506;2023-12-04T05:08:55;101094.22;;;5.85;61.13
70248;BME280;57641;51.416;5.506;2023-12-04T05:11:21;101090.53;;;5.88;60.84
70248;BME280;57641;51.416;5.506;2023-12-04T05:13:46;101090.16;;;5.81;60.72
70248;BME280;57641;51.416;5.506;2023-12-04T05:16:12;101089.91;;;5.84;61.63
70248;BME280;57641;51.416;5.506;2023-12-04T05:18:40;101080.13;;;5.74;61.15
70248;BME280;57641;51.416;5.506;2023-12-04T05:21:09;101082.53;;;5.77;61.91
70248;BME280;57641;51.416;5.506;2023-12-04T05:23:39;101076.19;;;5.79;61.40
70248;BME280;57641;51.416;5.506;2023-12-04T05:26:05;101074.13;;;5.83;61.43
70248;BME280;57641;51.416;5.506;2023-12-04T05:28:31;101057.75;;;5.67;61.33
70248;BME280;57641;51.416;5.506;2023-12-04T05:30:56;101061.25;;;5.78;61.01
70248;BME280;57641;51.416;5.506;2023-12-04T05:33:22;101048.34;;;5.63;60.82
70248;BME280;57641;51.416;5.506;2023-12-04T05:35:48;101051.03;;;5.74;60.92
70248;BME280;57641;51.416;5.506;2023-12-04T05:38:13;101052.59;;;5.76;61.49
70248;BME280;57641;51.416;5.506;2023-12-04T05:40:39;101047.81;;;5.81;60.83
70248;BME280;57641;51.416;5.506;2023-12-04T05:43:04;101049.13;;;5.76;61.14
70248;BME280;57641;51.416;5.506;2023-12-04T05:45:30;101042.97;;;5.75;61.51
70248;BME280;57641;51.416;5.506;2023-12-04T05:47:55;101037.81;;;5.85;60.84
70248;BME280;57641;51.416;5.506;2023-12-04T05:50:21;101041.41;;;5.73;60.69
70248;BME280;57641;51.416;5.506;2023-12-04T05:52:47;101042.00;;;5.76;60.42
70248;BME280;57641;51.416;5.506;2023-12-04T05:55:12;101040.34;;;5.75;60.72
70248;BME280;57641;51.416;5.506;2023-12-04T05:57:39;101034.81;;;5.78;60.58
70248;BME280;57641;51.416;5.506;2023-12-04T06:00:06;101029.50;;;5.67;61.09
70248;BME280;57641;51.416;5.506;2023-12-04T06:02:38;101027.09;;;5.64;60.15
70248;BME280;57641;51.416;5.506;2023-12-04T06:05:08;101030.59;;;5.65;61.60
70248;BME280;57641;51.416;5.506;2023-12-04T06:07:34;101033.22;;;5.65;61.43
70248;BME280;57641;51.416;5.506;2023-12-04T06:10:00;101020.72;;;5.78;60.82
70248;BME280;57641;51.416;5.506;2023-12-04T06:12:25;101012.09;;;5.87;60.57
70248;BME280;57641;51.416;5.506;2023-12-04T06:14:50;101011.47;;;5.83;59.99
70248;BME280;57641;51.416;5.506;2023-12-04T06:17:16;101014.38;;;5.80;60.50
70248;BME280;57641;51.416;5.506;2023-12-04T06:19:42;101008.25;;;5.80;60.33
70248;BME280;57641;51.416;5.506;2023-12-04T06:22:07;100997.75;;;5.78;60.15
70248;BME280;57641;51.416;5.506;2023-12-04T06:24:33;100997.63;;;5.69;60.41
70248;BME280;57641;51.416;5.506;2023-12-04T06:26:59;100985.75;;;5.74;60.45
70248;BME280;57641;51.416;5.506;2023-12-04T06:29:25;100984.16;;;5.72;60.66
70248;BME280;57641;51.416;5.506;2023-12-04T06:31:51;100982.72;;;5.79;60.24
70248;BME280;57641;51.416;5.506;2023-12-04T06:34:20;100980.34;;;5.87;60.20
70248;BME280;57641;51.416;5.506;2023-12-04T06:36:46;100970.47;;;5.78;59.21
70248;BME280;57641;51.416;5.506;2023-12-04T06:39:12;100955.91;;;5.83;59.58
70248;BME280;57641;51.416;5.506;2023-12-04T06:41:39;100962.31;;;5.70;60.01
70248;BME280;57641;51.416;5.506;2023-12-04T06:44:05;100958.81;;;5.80;59.28
70248;BME280;57641;51.416;5.506;2023-12-04T06:46:35;100942.09;;;5.80;60.08
70248;BME280;57641;51.416;5.506;2023-12-04T06:49:04;100944.16;;;5.87;59.77
70248;BME280;57641;51.416;5.506;2023-12-04T06:51:30;100920.69;;;5.83;58.75
70248;BME280;57641;51.416;5.506;2023-12-04T06:53:55;100928.28;;;5.87;59.18
70248;BME280;57641;51.416;5.506;2023-12-04T06:56:21;100930.66;;;5.79;59.03
70248;BME280;57641;51.416;5.506;2023-12-04T06:58:46;100945.94;;;5.76;58.36
70248;BME280;57641;51.416;5.506;2023-12-04T07:01:12;100941.38;;;5.78;58.71
70248;BME280;57641;51.416;5.506;2023-12-04T07:03:37;100938.97;;;5.64;58.43
70248;BME280;57641;51.416;5.506;2023-12-04T07:06:04;100942.47;;;5.75;58.31
70248;BME280;57641;51.416;5.506;2023-12-04T07:08:29;100945.00;;;5.66;59.29
70248;BME280;57641;51.416;5.506;2023-12-04T07:10:55;100943.63;;;5.71;58.75
70248;BME280;57641;51.416;5.506;2023-12-04T07:13:20;100942.94;;;5.58;59.13
70248;BME280;57641;51.416;5.506;2023-12-04T07:15:46;100938.00;;;5.65;58.45
70248;BME280;57641;51.416;5.506;2023-12-04T07:18:11;100943.31;;;5.76;59.22
70248;BME280;57641;51.416;5.506;2023-12-04T07:20:36;100945.47;;;5.71;58.78
70248;BME280;57641;51.416;5.506;2023-12-04T07:23:02;100941.47;;;5.76;58.45
70248;BME280;57641;51.416;5.506;2023-12-04T07:25:27;100943.78;;;5.70;58.59
70248;BME280;57641;51.416;5.506;2023-12-04T07:27:53;100941.25;;;5.79;57.80
70248;BME280;57641;51.416;5.506;2023-12-04T07:30:18;100933.91;;;5.72;57.35
70248;BME280;57641;51.416;5.506;2023-12-04T07:32:46;100936.53;;;5.61;57.67
70248;BME280;57641;51.416;5.506;2023-12-04T07:35:11;100939.53;;;5.56;57.85
70248;BME280;57641;51.416;5.506;2023-12-04T07:37:37;100947.47;;;5.56;58.04
70248;BME280;57641;51.416;5.506;2023-12-04T07:40:03;100958.53;;;5.50;59.41
70248;BME280;57641;51.416;5.506;2023-12-04T07:42:31;100954.56;;;5.56;58.73
70248;BME280;57641;51.416;5.506;2023-12-04T07:44:56;100946.66;;;5.67;58.74
70248;BME280;57641;51.416;5.506;2023-12-04T07:47:23;100955.91;;;5.61;58.41
70248;BME280;57641;51.416;5.506;2023-12-04T07:49:48;100945.81;;;5.66;58.02
70248;BME280;57641;51.416;5.506;2023-12-04T07:52:14;100950.75;;;5.71;57.43
70248;BME280;57641;51.416;5.506;2023-12-04T07:54:39;100940.66;;;5.76;58.20
70248;BME280;57641;51.416;5.506;2023-12-04T07:57:05;100931.50;;;5.69;58.99
70248;BME280;57641;51.416;5.506;2023-12-04T07:59:30;100940.41;;;5.68;57.99
70248;BME280;57641;51.416;5.506;2023-12-04T08:01:56;100922.38;;;5.73;58.24
70248;BME280;57641;51.416;5.506;2023-12-04T08:04:21;100924.66;;;5.77;58.41
70248;BME280;57641;51.416;5.506;2023-12-04T08:06:47;100922.47;;;5.71;58.37
70248;BME280;57641;51.416;5.506;2023-12-04T08:09:12;100923.22;;;5.73;58.27
70248;BME280;57641;51.416;5.506;2023-12-04T08:11:38;100919.84;;;5.82;57.60
70248;BME280;57641;51.416;5.506;2023-12-04T08:14:04;100917.34;;;5.81;56.81
70248;BME280;57641;51.416;5.506;2023-12-04T08:16:29;100915.53;;;5.70;58.42
70248;BME280;57641;51.416;5.506;2023-12-04T08:18:55;100905.28;;;5.77;58.71
70248;BME280;57641;51.416;5.506;2023-12-04T08:21:21;100908.19;;;5.74;58.01
70248;BME280;57641;51.416;5.506;2023-12-04T08:23:46;100909.13;;;5.84;58.03
70248;BME280;57641;51.416;5.506;2023-12-04T08:26:12;100916.59;;;5.68;57.91
70248;BME280;57641;51.416;5.506;2023-12-04T08:28:38;100900.25;;;5.74;58.05
70248;BME280;57641;51.416;5.506;2023-12-04T08:31:09;100906.50;;;5.73;57.96
70248;BME280;57641;51.416;5.506;2023-12-04T08:33:35;100899.28;;;5.75;57.29
70248;BME280;57641;51.416;5.506;2023-12-04T08:36:01;100895.22;;;5.60;57.42
70248;BME280;57641;51.416;5.506;2023-12-04T08:38:27;100885.69;;;5.79;57.78
70248;BME280;57641;51.416;5.506;2023-12-04T08:40:53;100883.28;;;5.76;57.81
70248;BME280;57641;51.416;5.506;2023-12-04T08:43:19;100879.44;;;5.80;57.56
70248;BME280;57641;51.416;5.506;2023-12-04T08:45:47;100877.06;;;5.88;57.55
70248;BME280;57641;51.416;5.506;2023-12-04T08:48:13;100871.03;;;5.86;57.55
70248;BME280;57641;51.416;5.506;2023-12-04T08:50:38;100863.59;;;5.91;56.60
70248;BME280;57641;51.416;5.506;2023-12-04T08:53:04;100855.88;;;5.88;56.53
70248;BME280;57641;51.416;5.506;2023-12-04T08:55:30;100853.09;;;5.79;57.48
70248;BME280;57641;51.416;5.506;2023-12-04T08:57:55;100851.91;;;5.94;56.57
70248;BME280;57641;51.416;5.506;2023-12-04T09:00:21;100850.09;;;5.94;56.83
70248;BME280;57641;51.416;5.506;2023-12-04T09:02:47;100859.38;;;5.89;57.36
70248;BME280;57641;51.416;5.506;2023-12-04T09:05:13;100857.78;;;5.98;56.88
70248;BME280;57641;51.416;5.506;2023-12-04T09:07:39;100866.25;;;5.91;57.17
70248;BME280;57641;51.416;5.506;2023-12-04T09:10:05;100857.78;;;5.98;56.58
70248;BME280;57641;51.416;5.506;2023-12-04T09:12:31;100854.53;;;6.05;55.72
70248;BME280;57641;51.416;5.506;2023-12-04T09:14:56;100847.00;;;5.89;56.32
70248;BME280;57641;51.416;5.506;2023-12-04T09:17:22;100850.19;;;6.04;57.05
70248;BME280;57641;51.416;5.506;2023-12-04T09:19:47;100840.72;;;6.02;57.26
70248;BME280;57641;51.416;5.506;2023-12-04T09:22:13;100844.28;;;6.12;56.25
70248;BME280;57641;51.416;5.506;2023-12-04T09:24:38;100840.47;;;5.93;56.18
70248;BME280;57641;51.416;5.506;2023-12-04T09:27:04;100841.88;;;6.09;55.84
70248;BME280;57641;51.416;5.506;2023-12-04T09:29:31;100833.34;;;6.05;56.81
70248;BME280;57641;51.416;5.506;2023-12-04T09:31:57;100829.63;;;6.08;56.22
70248;BME280;57641;51.416;5.506;2023-12-04T09:34:22;100832.75;;;6.13;56.29
70248;BME280;57641;51.416;5.506;2023-12-04T09:36:48;100831.91;;;6.12;56.80
70248;BME280;57641;51.416;5.506;2023-12-04T09:39:13;100830.34;;;5.99;56.54
70248;BME280;57641;51.416;5.506;2023-12-04T09:41:41;100844.25;;;6.23;56.94
70248;BME280;57641;51.416;5.506;2023-12-04T09:44:08;100849.75;;;6.31;56.35
70248;BME280;57641;51.416;5.506;2023-12-04T09:46:34;100846.19;;;6.21;55.97
70248;BME280;57641;51.416;5.506;2023-12-04T09:49:00;100842.31;;;6.25;56.61
70248;BME280;57641;51.416;5.506;2023-12-04T09:51:27;100841.69;;;6.32;55.91
70248;BME280;57641;51.416;5.506;2023-12-04T09:53:54;100840.97;;;6.30;55.94
70248;BME280;57641;51.416;5.506;2023-12-04T09:56:23;100840.38;;;6.27;56.17
70248;BME280;57641;51.416;5.506;2023-12-04T09:58:53;100840.13;;;6.30;56.49
70248;BME280;57641;51.416;5.506;2023-12-04T10:01:23;100835.09;;;6.27;55.46
70248;BME280;57641;51.416;5.506;2023-12-04T10:03:50;100827.63;;;6.32;56.55
70248;BME280;57641;51.416;5.506;2023-12-04T10:06:16;100833.53;;;6.24;56.33
70248;BME280;57641;51.416;5.506;2023-12-04T10:08:43;100821.75;;;6.28;56.65
70248;BME280;57641;51.416;5.506;2023-12-04T10:11:10;100822.91;;;6.35;56.08
70248;BME280;57641;51.416;5.506;2023-12-04T10:13:36;100820.59;;;6.42;56.04
70248;BME280;57641;51.416;5.506;2023-12-04T10:16:02;100814.00;;;6.36;56.00
70248;BME280;57641;51.416;5.506;2023-12-04T10:18:29;100813.09;;;6.47;55.95
70248;BME280;57641;51.416;5.506;2023-12-04T10:20:58;100814.84;;;6.37;56.54
70248;BME280;57641;51.416;5.506;2023-12-04T10:23:41;100806.97;;;6.47;56.09
70248;BME280;57641;51.416;5.506;2023-12-04T10:26:07;100799.41;;;6.42;57.19
70248;BME280;57641;51.416;5.506;2023-12-04T10:28:34;100793.66;;;6.58;57.00
70248;BME280;57641;51.416;5.506;2023-12-04T10:31:03;100782.22;;;6.57;56.74
70248;BME280;57641;51.416;5.506;2023-12-04T10:33:32;100783.72;;;6.50;56.15
70248;BME280;57641;51.416;5.506;2023-12-04T10:35:57;100774.28;;;6.57;56.27
70248;BME280;57641;51.416;5.506;2023-12-04T10:38:23;100774.88;;;6.61;56.49
70248;BME280;57641;51.416;5.506;2023-12-04T10:40:49;100770.16;;;6.64;56.05
70248;BME280;57641;51.416;5.506;2023-12-04T10:43:18;100763.03;;;6.65;56.05
70248;BME280;57641;51.416;5.506;2023-12-04T10:45:46;100755.09;;;6.65;56.16
70248;BME280;57641;51.416;5.506;2023-12-04T10:48:13;100751.78;;;6.72;56.27
70248;BME280;57641;51.416;5.506;2023-12-04T10:50:41;100742.03;;;6.73;55.82
70248;BME280;57641;51.416;5.506;2023-12-04T10:53:11;100731.31;;;6.74;56.41
70248;BME280;57641;51.416;5.506;2023-12-04T10:55:37;100730.78;;;6.81;56.91
70248;BME280;57641;51.416;5.506;2023-12-04T10:58:09;100727.94;;;6.72;56.52
70248;BME280;57641;51.416;5.506;2023-12-04T11:00:38;100727.53;;;6.77;57.09
70248;BME280;57641;51.416;5.506;2023-12-04T11:03:08;100724.97;;;6.87;56.35
70248;BME280;57641;51.416;5.506;2023-12-04T11:05:39;100716.44;;;6.93;55.76
70248;BME280;57641;51.416;5.506;2023-12-04T11:08:11;100723.59;;;6.92;56.01
70248;BME280;57641;51.416;5.506;2023-12-04T11:10:48;100708.91;;;6.88;56.64
70248;BME280;57641;51.416;5.506;2023-12-04T11:13:21;100707.38;;;6.86;56.99
70248;BME280;57641;51.416;5.506;2023-12-04T11:15:48;100706.25;;;6.88;56.46
70248;BME280;57641;51.416;5.506;2023-12-04T11:18:21;100708.50;;;6.93;55.56
70248;BME280;57641;51.416;5.506;2023-12-04T11:20:51;100714.72;;;7.03;56.12
70248;BME280;57641;51.416;5.506;2023-12-04T11:23:20;100709.09;;;6.96;56.74
70248;BME280;57641;51.416;5.506;2023-12-04T11:25:46;100712.19;;;7.01;55.62
70248;BME280;57641;51.416;5.506;2023-12-04T11:28:13;100707.97;;;6.99;55.83
70248;BME280;57641;51.416;5.506;2023-12-04T11:30:40;100687.69;;;6.88;57.06
70248;BME280;57641;51.416;5.506;2023-12-04T11:33:05;100689.25;;;6.91;56.27
70248;BME280;57641;51.416;5.506;2023-12-04T11:35:33;100684.09;;;6.89;57.02
70248;BME280;57641;51.416;5.506;2023-12-04T11:37:59;100680.09;;;7.04;56.37
70248;BME280;57641;51.416;5.506;2023-12-04T11:40:24;100680.06;;;6.95;57.26
70248;BME280;57641;51.416;5.506;2023-12-04T11:42:52;100667.56;;;7.06;57.03
70248;BME280;57641;51.416;5.506;2023-12-04T11:45:18;100663.06;;;6.97;56.44
70248;BME280;57641;51.416;5.506;2023-12-04T11:47:53;100652.75;;;7.04;57.68
70248;BME280;57641;51.416;5.506;2023-12-04T11:50:20;100643.25;;;7.01;58.10
70248;BME280;57641;51.416;5.506;2023-12-04T11:52:47;100644.66;;;6.96;57.81
70248;BME280;57641;51.416;5.506;2023-12-04T11:55:16;100654.25;;;6.87;58.23
70248;BME280;57641;51.416;5.506;2023-12-04T11:57:42;100640.69;;;6.81;58.80
70248;BME280;57641;51.416;5.506;2023-12-04T12:00:11;100633.06;;;6.87;59.22
70248;BME280;57641;51.416;5.506;2023-12-04T12:02:39;100636.94;;;6.93;58.68
70248;BME280;57641;51.416;5.506;2023-12-04T12:05:06;100625.81;;;6.99;59.16
70248;BME280;57641;51.416;5.506;2023-12-04T12:07:33;100618.13;;;6.86;58.44
70248;BME280;57641;51.416;5.506;2023-12-04T12:09:59;100612.28;;;6.92;58.36
70248;BME280;57641;51.416;5.506;2023-12-04T12:12:28;100593.44;;;6.86;59.32
70248;BME280;57641;51.416;5.506;2023-12-04T12:14:53;100600.53;;;6.85;59.14
70248;BME280;57641;51.416;5.506;2023-12-04T12:17:19;100583.66;;;6.86;60.24
70248;BME280;57641;51.416;5.506;2023-12-04T12:19:45;100581.59;;;6.99;58.39
70248;BME280;57641;51.416;5.506;2023-12-04T12:22:10;100579.47;;;6.93;58.83
70248;BME280;57641;51.416;5.506;2023-12-04T12:24:37;100580.72;;;6.89;58.59
70248;BME280;57641;51.416;5.506;2023-12-04T12:27:02;100582.53;;;6.89;58.75
70248;BME280;57641;51.416;5.506;2023-12-04T12:29:29;100587.69;;;6.71;59.78
70248;BME280;57641;51.416;5.506;2023-12-04T12:31:55;100583.94;;;6.83;59.49
70248;BME280;57641;51.416;5.506;2023-12-04T12:34:20;100578.06;;;6.79;59.75
70248;BME280;57641;51.416;5.506;2023-12-04T12:36:46;100570.63;;;6.64;59.55
70248;BME280;57641;51.416;5.506;2023-12-04T12:39:13;100566.63;;;6.79;59.81
70248;BME280;57641;51.416;5.506;2023-12-04T12:41:39;100562.31;;;6.88;59.41
70248;BME280;57641;51.416;5.506;2023-12-04T12:44:05;100558.97;;;6.86;59.28
70248;BME280;57641;51.416;5.506;2023-12-04T12:46:31;100553.56;;;6.97;58.46
70248;BME280;57641;51.416;5.506;2023-12-04T12:48:56;100553.13;;;6.92;58.77
70248;BME280;57641;51.416;5.506;2023-12-04T12:51:23;100544.22;;;7.02;58.73
70248;BME280;57641;51.416;5.506;2023-12-04T12:53:49;100541.53;;;6.93;58.55